Nearby METAR Reports

 

KMNN - Marion, Ohio, USA
Distance from station: ENE 4mi, 6km
Updated: 09/20/2021 5:53pm
Clear
Clear
 Wind from S
Wind: S 13 mph , 20 km/h
Temperature: 75°F , 24°C
Dew Point: 66°F , 19°C
Humidity: 74%
Barometer: 30.09 inHg , 1019 hPa
Clouds: Clear
Visibility: 10 miles , 16 km
2021/09/20 21:53 KMNN 202153Z AUTO 19011KT 10SM CLR 24/19 A3009 RMK AO2 SLP186 T02440189
KDLZ - Delaware, Ohio, USA
Distance from station: S 21mi, 34km
Updated: 09/20/2021 6:15pm
Mostly cloudy
Mostly cloudy
 Wind from SSW
Wind: SSW 5 mph , 7 km/h
Temperature: 79°F , 26°C
Dew Point: 68°F , 20°C
Humidity: 70%
Barometer: 30.10 inHg , 1019.3 hPa
Clouds: Mostly cloudy
Visibility: 10 miles , 16 km
Cloud details: Mostly cloudy 12000 ft
2021/09/20 22:15 KDLZ 202215Z AUTO 20004KT 10SM BKN120 26/20 A3010 RMK AO2
 
KMRT - Marysville, Ohio, USA
Distance from station: SSW 28mi, 45km
Updated: 09/20/2021 6:15pm
Partly cloudy
Partly cloudy
 Wind from SSW
Wind: SSW 6 mph , 9 km/h
Temperature: 75°F , 24°C
Dew Point: 66°F , 19°C
Humidity: 74%
Barometer: 30.11 inHg , 1019.6 hPa
Clouds: Partly cloudy
Cloud details: Partly cloudy 12000 ft
2021/09/20 22:15 KMRT 202215Z AUTO 21005KT SCT120 24/19 A3011 RMK AO2 T02400186
KOSU - Columbus/St Univ, Ohio, USA
Distance from station: S 35mi, 56km
Updated: 09/20/2021 5:53pm
Few Clouds
Few Clouds
 Wind from SSW
Wind: SSW 9 mph , 15 km/h
Temperature: 79°F , 26°C
Dew Point: 66°F , 19°C
Humidity: 65%
Barometer: 30.10 inHg , 1019.3 hPa
Clouds: Few Clouds
Visibility: 10 miles , 16 km
Cloud details: Few Clouds 11000 ft
2021/09/20 21:53 KOSU 202153Z 20008KT 10SM FEW110 26/19 A3010 RMK AO2 SLP184 T02610189
 
KMFD - Mansfield, Ohio, USA
Distance from station: ENE 36mi, 57km
Updated: 09/20/2021 5:52pm
Clear
Clear
 Wind from SSW
Wind: SSW 14 mph , 22 km/h
Temperature: 75°F , 24°C
Dew Point: 64°F , 18°C
Humidity: 69%
Barometer: 30.12 inHg , 1020 hPa
Clouds: Clear
Visibility: 10 miles , 16 km
2021/09/20 21:52 KMFD 202152Z AUTO 20012KT 10SM CLR 24/18 A3012 RMK AO2 SLP191 T02440183
K4I3 - Mt Vernon/Knox, Ohio, USA
Distance from station: ESE 36mi, 58km
Updated: 09/20/2021 5:55pm
Clear
Clear
 Wind from S
Wind: S 6 mph , 9 km/h
Temperature: 77°F , 25°C
Dew Point: 66°F , 19°C
Humidity: 69%
Barometer: 30.13 inHg , 1020.3 hPa
Clouds: Clear
Visibility: 10 miles , 16 km
2021/09/20 21:55 K4I3 202155Z AUTO 17005KT 10SM CLR 25/19 A3013 RMK AO2
 
KEDJ - Bellefontaine, Ohio, USA
Distance from station: WSW 39mi, 63km
Updated: 09/20/2021 5:55pm
Clear
Clear
 Wind from SSW
Wind: SSW 7 mph , 11 km/h
Temperature: 72°F , 22°C
Dew Point: 72°F , 22°C
Humidity: 100%
Barometer: 30.10 inHg , 1019.3 hPa
Clouds: Clear
Visibility: 8 miles , 13 km
2021/09/20 21:55 KEDJ 202155Z AUTO 21006KT 8SM CLR 22/22 A3010 RMK AO1 P0002
KFDY - Findlay, Ohio, USA
Distance from station: NW 41mi, 66km
Updated: 09/20/2021 5:53pm
Light rain, Overcast
Light rain, Overcast
 Wind from SSW
Wind: SSW 8 mph , 13 km/h
Temperature: 77°F , 25°C
Dew Point: 70°F , 21°C
Humidity: 79%
Barometer: 30.05 inHg , 1017.6 hPa
Summary: Light rain
Clouds: Overcast
Visibility: 10 miles , 16 km
Cloud details: Mostly cloudy 9000 ft
Overcast 12000 ft
2021/09/20 21:53 KFDY 202153Z AUTO 20007KT 10SM -RA BKN090 OVC120 25/21 A3005 RMK AO2 SLP168 P0000 T02500211
 
KCMH - Columbus, Ohio, USA
Distance from station: SSE 43mi, 69km
Updated: 09/20/2021 5:51pm
Overcast
Overcast
 Wind from SW
Wind: SW 5 mph , 7 km/h
Temperature: 79°F , 26°C
Dew Point: 66°F , 19°C
Humidity: 65%
Barometer: 30.09 inHg , 1019 hPa
Clouds: Overcast
Visibility: 10 miles , 16 km
Cloud details: Few Clouds 4000 ft
Partly cloudy 6500 ft
Overcast 13000 ft
2021/09/20 21:51 KCMH 202151Z 23004KT 10SM FEW040 SCT065 OVC130 26/19 A3009 RMK AO2 SLP185 T02610194
KAOH - Lima, Ohio, USA
Distance from station: W 47mi, 76km
Updated: 09/20/2021 6:15pm
Light rain, Overcast
Light rain, Overcast
 Wind from S
Wind: S 9 mph , 15 km/h
Temperature: 73°F , 23°C
Dew Point: 70°F , 21°C
Humidity: 89%
Barometer: 30.06 inHg , 1017.9 hPa
Summary: Light rain
Clouds: Overcast
Visibility: 10 miles , 16 km
Cloud details: Mostly cloudy 1400 ft
Mostly cloudy 4800 ft
Overcast 11000 ft
2021/09/20 22:15 KAOH 202215Z AUTO 17008KT 10SM -RA BKN014 BKN048 OVC110 23/21 A3006 RMK AO2 P0000 T02280211
 
KTZR - Columbus/Bolton, Ohio, USA
Distance from station: S 48mi, 77km
Updated: 09/20/2021 5:47pm
Mostly cloudy
Mostly cloudy
 Wind from SSW
Wind: SSW 6 mph , 9 km/h
Temperature: 75°F , 24°C
Dew Point: 66°F , 19°C
Humidity: 74%
Barometer: 30.11 inHg , 1019.6 hPa
Clouds: Mostly cloudy
Visibility: 10 miles , 16 km
Cloud details: Mostly cloudy 11000 ft
2021/09/20 21:47 KTZR 202147Z 20005KT 10SM BKN110 24/19 A3011
KUYF - London, Ohio, USA
Distance from station: SSW 49mi, 78km
Updated: 09/20/2021 5:55pm
Overcast
Overcast
 Wind from S
Wind: S 5 mph , 7 km/h
Temperature: 73°F , 23°C
Dew Point: 64°F , 18°C
Humidity: 74%
Barometer: 30.10 inHg , 1019.3 hPa
Clouds: Overcast
Visibility: 10 miles , 16 km
Cloud details: Partly cloudy 8000 ft
Overcast 11000 ft
2021/09/20 21:55 KUYF 202155Z AUTO 17004KT 10SM SCT080 OVC110 23/18 A3010 RMK AO2